createdAt,value
2017-12-03T00:00:38.300Z,18.30
2017-12-03T00:03:08.012Z,18.30
2017-12-03T00:05:36.280Z,18.30
2017-12-03T00:08:04.801Z,18.20
2017-12-03T00:10:34.018Z,18.20
2017-12-03T00:13:02.275Z,18.20
2017-12-03T00:15:32.155Z,18.20
2017-12-03T00:18:00.415Z,18.20
2017-12-03T00:20:29.591Z,18.20
2017-12-03T00:23:00.553Z,18.20
2017-12-03T00:25:28.955Z,18.20
2017-12-03T00:27:57.231Z,18.20
2017-12-03T00:30:25.579Z,18.20
2017-12-03T00:32:54.710Z,18.20
2017-12-03T00:35:23.487Z,18.20
2017-12-03T00:37:52.519Z,18.20
2017-12-03T00:40:20.904Z,18.20
2017-12-03T00:42:49.959Z,18.20
2017-12-03T00:45:18.332Z,18.20
2017-12-03T00:47:46.623Z,18.20
2017-12-03T00:50:14.942Z,18.20
2017-12-03T00:52:43.400Z,18.20
2017-12-03T00:55:11.899Z,18.20
2017-12-03T00:57:40.198Z,18.20
2017-12-03T01:00:08.465Z,18.20
2017-12-03T01:02:36.828Z,18.20
2017-12-03T01:05:06.295Z,18.20
2017-12-03T01:07:35.344Z,18.20
2017-12-03T01:10:05.007Z,18.20
2017-12-03T01:12:34.120Z,18.10
2017-12-03T01:15:02.873Z,18.10
2017-12-03T01:17:31.956Z,18.10
2017-12-03T01:20:00.242Z,18.10
2017-12-03T01:22:30.376Z,18.10
2017-12-03T01:25:00.028Z,18.10
2017-12-03T01:27:28.523Z,18.10
2017-12-03T01:29:56.819Z,18.10
2017-12-03T01:32:25.207Z,18.10
2017-12-03T01:34:53.634Z,18.00
2017-12-03T01:37:21.899Z,18.00
2017-12-03T01:39:50.174Z,18.00
2017-12-03T01:42:18.492Z,18.00
2017-12-03T01:44:46.756Z,18.00
2017-12-03T01:47:15.823Z,18.00
2017-12-03T01:49:44.108Z,18.00
2017-12-03T01:52:12.406Z,18.10
2017-12-03T01:54:41.634Z,18.10
2017-12-03T01:57:10.696Z,18.10
2017-12-03T01:59:39.016Z,18.00
2017-12-03T02:02:08.012Z,18.10
2017-12-03T02:04:36.366Z,18.10
2017-12-03T02:07:06.393Z,18.10
2017-12-03T02:09:35.471Z,18.10
2017-12-03T02:12:03.795Z,18.10
2017-12-03T02:14:32.954Z,18.10
2017-12-03T02:17:02.326Z,18.10
2017-12-03T02:19:30.890Z,18.10
2017-12-03T02:21:59.101Z,18.10
2017-12-03T02:24:27.498Z,18.10
2017-12-03T02:26:56.595Z,18.10
2017-12-03T02:29:25.663Z,18.10
2017-12-03T02:31:58.657Z,18.10
2017-12-03T02:34:27.166Z,18.10
2017-12-03T02:36:55.524Z,18.10
2017-12-03T02:39:24.522Z,18.10
2017-12-03T02:41:54.441Z,18.10
2017-12-03T02:44:24.375Z,18.10
2017-12-03T02:46:52.625Z,18.10
2017-12-03T02:49:21.712Z,18.10
2017-12-03T02:51:50.099Z,18.10
2017-12-03T02:54:19.092Z,18.00
2017-12-03T02:56:48.216Z,18.10
2017-12-03T02:59:16.449Z,18.00
2017-12-03T03:01:45.577Z,18.10
2017-12-03T03:04:13.828Z,18.10
2017-12-03T03:06:42.817Z,18.00
2017-12-03T03:09:12.832Z,18.00
2017-12-03T03:11:41.822Z,18.00
2017-12-03T03:14:10.879Z,18.10
2017-12-03T03:16:39.171Z,18.00
2017-12-03T03:19:07.505Z,18.00
2017-12-03T03:21:35.837Z,18.00
2017-12-03T03:24:04.885Z,18.00
2017-12-03T03:26:33.160Z,18.00
2017-12-03T03:29:02.207Z,18.00
2017-12-03T03:31:31.255Z,18.00
2017-12-03T03:33:59.531Z,18.00
2017-12-03T03:36:27.791Z,18.00
2017-12-03T03:38:56.072Z,18.10
2017-12-03T03:43:58.810Z,18.10
2017-12-03T03:46:27.034Z,18.00
2017-12-03T03:48:55.280Z,18.00
2017-12-03T03:51:24.298Z,18.00
2017-12-03T03:53:52.558Z,18.00
2017-12-03T03:56:21.846Z,18.00
2017-12-03T03:58:50.909Z,18.00
2017-12-03T04:01:19.139Z,18.00
2017-12-03T04:03:47.391Z,18.00
2017-12-03T04:06:16.415Z,18.00
2017-12-03T04:08:44.668Z,18.00
2017-12-03T04:11:13.708Z,18.00
2017-12-03T04:13:42.074Z,18.00
2017-12-03T04:16:10.351Z,18.00
2017-12-03T04:18:38.594Z,18.00
2017-12-03T04:21:06.933Z,18.00
2017-12-03T04:23:35.264Z,18.00
2017-12-03T04:26:03.499Z,18.00
2017-12-03T04:28:31.734Z,18.00
2017-12-03T04:30:59.957Z,18.00
2017-12-03T04:33:28.983Z,18.00
2017-12-03T04:35:57.212Z,18.00
2017-12-03T04:38:25.456Z,18.00
2017-12-03T04:40:53.724Z,18.00
2017-12-03T04:43:21.970Z,18.00
2017-12-03T04:45:50.233Z,18.00
2017-12-03T04:48:19.337Z,18.00
2017-12-03T04:50:47.570Z,18.00
2017-12-03T04:53:15.859Z,18.00
2017-12-03T04:55:44.115Z,18.00
2017-12-03T04:58:12.367Z,18.00
2017-12-03T05:00:40.637Z,18.00
2017-12-03T05:03:08.882Z,18.00
2017-12-03T05:05:37.204Z,18.00
2017-12-03T05:08:05.444Z,18.00
2017-12-03T05:10:33.819Z,18.00
2017-12-03T05:13:02.060Z,18.00
2017-12-03T05:15:30.277Z,18.00
2017-12-03T05:17:58.567Z,18.00
2017-12-03T05:20:26.786Z,18.00
2017-12-03T05:22:55.012Z,18.00
2017-12-03T05:25:23.259Z,18.00
2017-12-03T05:27:51.476Z,17.90
2017-12-03T05:30:19.707Z,18.00
2017-12-03T05:32:48.810Z,17.90
2017-12-03T05:35:17.079Z,17.90
2017-12-03T05:37:46.116Z,17.90
2017-12-03T05:40:14.348Z,17.90
2017-12-03T05:42:42.672Z,17.90
2017-12-03T05:45:11.029Z,17.90
2017-12-03T05:47:39.296Z,17.90
2017-12-03T05:50:07.647Z,17.90
2017-12-03T05:52:36.719Z,17.90
2017-12-03T05:55:04.977Z,17.90
2017-12-03T05:57:33.257Z,17.90
2017-12-03T06:00:01.544Z,18.00
2017-12-03T06:02:29.805Z,18.00
2017-12-03T06:04:58.874Z,18.10
2017-12-03T06:07:27.165Z,18.10
2017-12-03T06:09:55.470Z,18.20
2017-12-03T06:12:23.803Z,18.30
2017-12-03T06:14:52.103Z,18.30
2017-12-03T06:17:20.383Z,18.40
2017-12-03T06:19:48.620Z,18.50
2017-12-03T06:22:16.867Z,18.50
2017-12-03T06:24:45.087Z,18.60
2017-12-03T06:27:13.326Z,18.60
2017-12-03T06:29:41.573Z,18.60
2017-12-03T06:32:09.830Z,18.60
2017-12-03T06:34:38.081Z,18.60
2017-12-03T06:37:06.328Z,18.60
2017-12-03T06:39:34.556Z,18.70
2017-12-03T06:42:02.789Z,18.70
2017-12-03T06:44:31.062Z,18.70
2017-12-03T06:46:59.312Z,18.70
2017-12-03T06:49:28.301Z,18.70
2017-12-03T06:51:57.465Z,18.70
2017-12-03T06:54:25.745Z,18.70
2017-12-03T06:56:53.974Z,18.70
2017-12-03T06:59:22.200Z,18.70
2017-12-03T07:01:50.417Z,18.80
2017-12-03T07:04:18.699Z,18.80
2017-12-03T07:06:46.931Z,18.70
2017-12-03T07:09:15.971Z,18.80
2017-12-03T07:11:44.230Z,18.80
2017-12-03T07:14:12.503Z,18.80
2017-12-03T07:16:40.738Z,18.80
2017-12-03T07:19:08.971Z,18.80
2017-12-03T07:21:37.309Z,18.80
2017-12-03T07:24:06.318Z,18.90
2017-12-03T07:26:34.579Z,18.80
2017-12-03T07:29:03.574Z,18.90
2017-12-03T07:31:32.589Z,18.90
2017-12-03T07:34:00.860Z,18.90
2017-12-03T07:36:29.102Z,18.90
2017-12-03T07:38:57.342Z,18.90
2017-12-03T07:41:25.612Z,18.90
2017-12-03T07:43:53.830Z,18.90
2017-12-03T07:46:22.874Z,18.90
2017-12-03T07:48:51.127Z,18.90
2017-12-03T07:51:19.371Z,18.90
2017-12-03T07:53:47.623Z,18.90
2017-12-03T07:56:15.934Z,18.90
2017-12-03T07:58:44.185Z,18.90
2017-12-03T08:01:12.447Z,18.90
2017-12-03T08:03:40.721Z,18.90
2017-12-03T08:06:08.950Z,18.90
2017-12-03T08:08:37.312Z,18.90
2017-12-03T08:11:06.343Z,18.90
2017-12-03T08:13:34.582Z,18.90
2017-12-03T08:16:03.603Z,18.90
2017-12-03T08:18:31.972Z,18.90
2017-12-03T08:21:00.202Z,18.90
2017-12-03T08:23:28.453Z,18.90
2017-12-03T08:25:56.717Z,18.90
2017-12-03T08:28:28.661Z,19.00
2017-12-03T08:30:56.897Z,19.00
2017-12-03T08:33:25.144Z,19.00
2017-12-03T08:35:53.371Z,19.10
2017-12-03T08:38:22.018Z,19.10
2017-12-03T08:40:50.268Z,19.00
2017-12-03T08:43:18.595Z,19.10
2017-12-03T08:45:47.651Z,19.10
2017-12-03T08:48:15.971Z,19.00
2017-12-03T08:50:44.186Z,19.10
2017-12-03T08:53:12.443Z,19.10
2017-12-03T08:55:40.762Z,19.00
2017-12-03T08:58:08.993Z,19.10
2017-12-03T09:00:37.288Z,19.00
2017-12-03T09:03:05.829Z,19.00
2017-12-03T09:05:34.098Z,19.00
2017-12-03T09:08:03.176Z,19.00
2017-12-03T09:10:32.170Z,19.00
2017-12-03T09:13:01.152Z,19.00
2017-12-03T09:15:29.522Z,19.00
2017-12-03T09:17:57.924Z,19.00
2017-12-03T09:20:27.077Z,19.00
2017-12-03T09:22:55.327Z,19.00
2017-12-03T09:25:23.546Z,18.90
2017-12-03T09:27:51.786Z,18.90
2017-12-03T09:30:20.036Z,18.90
2017-12-03T09:32:48.294Z,18.90
2017-12-03T09:35:17.316Z,18.90
2017-12-03T09:37:45.705Z,18.80
2017-12-03T09:40:14.026Z,18.80
2017-12-03T09:42:43.044Z,18.90
2017-12-03T09:45:11.421Z,18.90
2017-12-03T09:47:40.452Z,18.90
2017-12-03T09:50:08.774Z,18.80
2017-12-03T09:52:37.830Z,18.90
2017-12-03T09:55:06.115Z,18.80
2017-12-03T09:57:35.147Z,18.90
2017-12-03T10:00:04.206Z,18.90
2017-12-03T10:02:34.504Z,18.90
2017-12-03T10:05:04.326Z,18.90
2017-12-03T10:07:32.907Z,18.90
2017-12-03T10:10:01.328Z,18.90
2017-12-03T10:12:30.357Z,18.90
2017-12-03T10:14:58.606Z,18.90
2017-12-03T10:17:26.868Z,18.90
2017-12-03T10:19:55.883Z,18.90
2017-12-03T10:22:24.167Z,18.90
2017-12-03T10:24:52.403Z,18.90
2017-12-03T10:27:21.524Z,18.90
2017-12-03T10:29:49.796Z,18.90
2017-12-03T10:32:18.815Z,18.90
2017-12-03T10:34:47.107Z,18.90
2017-12-03T10:37:16.218Z,19.00
2017-12-03T10:39:44.572Z,19.00
2017-12-03T10:42:12.835Z,19.00
2017-12-03T10:44:41.087Z,19.00
2017-12-03T10:47:09.431Z,19.00
2017-12-03T10:49:37.844Z,19.00
2017-12-03T10:52:06.963Z,19.00
2017-12-03T10:54:36.112Z,19.00
2017-12-03T10:57:04.436Z,19.00
2017-12-03T10:59:32.706Z,19.00
2017-12-03T11:02:00.943Z,19.00
2017-12-03T11:04:29.383Z,19.00
2017-12-03T11:06:57.692Z,19.00
2017-12-03T11:09:26.136Z,19.00
2017-12-03T11:11:54.450Z,19.00
2017-12-03T11:14:22.755Z,19.00
2017-12-03T11:16:51.095Z,18.90
2017-12-03T11:19:21.071Z,18.90
2017-12-03T11:21:50.211Z,18.90
2017-12-03T11:24:19.371Z,19.00
2017-12-03T11:26:47.810Z,18.90
2017-12-03T11:29:16.111Z,18.90
2017-12-03T11:31:45.303Z,19.00
2017-12-03T11:34:13.592Z,19.00
2017-12-03T11:36:42.731Z,19.00
2017-12-03T11:39:11.997Z,19.00
2017-12-03T11:41:40.507Z,19.00
2017-12-03T11:44:08.862Z,19.00
2017-12-03T11:46:37.158Z,19.00
2017-12-03T11:49:06.244Z,19.00
2017-12-03T11:51:34.700Z,19.00
2017-12-03T11:54:02.986Z,19.00
2017-12-03T11:56:31.350Z,19.00
2017-12-03T11:58:59.836Z,19.00
2017-12-03T12:01:28.102Z,19.00
2017-12-03T12:03:56.433Z,19.00
2017-12-03T12:06:25.430Z,19.00
2017-12-03T12:08:54.455Z,19.00
2017-12-03T12:11:22.701Z,19.00
2017-12-03T12:13:50.986Z,19.00
2017-12-03T12:16:19.252Z,19.00
2017-12-03T12:18:48.367Z,19.00
2017-12-03T12:21:17.454Z,19.00
2017-12-03T12:23:45.757Z,19.00
2017-12-03T12:26:14.011Z,19.00
2017-12-03T12:28:42.348Z,19.10
2017-12-03T12:31:11.873Z,19.00
2017-12-03T12:34:17.533Z,19.00
2017-12-03T12:36:47.093Z,19.00
2017-12-03T12:39:16.367Z,19.00
2017-12-03T12:41:44.743Z,19.00
2017-12-03T12:44:14.152Z,19.00
2017-12-03T12:46:44.289Z,19.00
2017-12-03T12:49:13.444Z,19.10
2017-12-03T12:51:41.776Z,19.00
2017-12-03T12:54:14.335Z,19.10
2017-12-03T15:16:42.082Z,19.00
2017-12-03T15:19:11.392Z,19.00
2017-12-03T15:21:43.901Z,19.00
2017-12-03T15:24:13.146Z,19.10
2017-12-03T15:26:41.684Z,19.10
2017-12-03T15:29:09.970Z,19.10
2017-12-03T15:31:39.381Z,19.10
2017-12-03T15:34:12.592Z,19.10
2017-12-03T15:36:41.894Z,19.20
2017-12-03T15:39:12.646Z,19.20
2017-12-03T15:41:44.083Z,19.20
2017-12-03T15:44:13.495Z,19.20
2017-12-03T15:46:43.876Z,19.20
2017-12-03T15:49:13.511Z,19.20
2017-12-03T15:51:42.219Z,19.20
2017-12-03T15:54:11.490Z,19.20
2017-12-03T15:56:45.497Z,19.20
2017-12-03T15:59:19.583Z,19.20
2017-12-03T16:01:48.124Z,19.20
2017-12-03T16:04:19.078Z,19.20
2017-12-03T16:06:47.717Z,19.20
2017-12-03T16:09:20.000Z,19.20
2017-12-03T16:11:48.314Z,19.20
2017-12-03T16:14:17.447Z,19.20
2017-12-03T16:16:45.749Z,19.20
2017-12-03T16:19:14.040Z,19.20
2017-12-03T16:21:42.390Z,19.20
2017-12-03T16:24:10.684Z,19.20
2017-12-03T16:26:38.990Z,19.20
2017-12-03T16:29:07.396Z,19.20
2017-12-03T16:31:36.408Z,19.20
2017-12-03T16:34:04.769Z,19.20
2017-12-03T16:36:34.101Z,19.30
2017-12-03T16:39:02.419Z,19.30
2017-12-03T16:41:30.943Z,19.30
2017-12-03T16:43:59.273Z,19.30
2017-12-03T16:46:27.583Z,19.30
2017-12-03T16:48:56.809Z,19.20
2017-12-03T16:51:26.000Z,19.30
2017-12-03T16:53:54.324Z,19.20
2017-12-03T16:56:22.595Z,19.20
2017-12-03T16:58:50.864Z,19.30
2017-12-03T17:01:19.196Z,19.30
2017-12-03T17:03:47.575Z,19.30
2017-12-03T17:06:15.865Z,19.20
2017-12-03T17:08:44.175Z,19.20
2017-12-03T17:11:12.415Z,19.20
2017-12-03T17:13:40.725Z,19.20
2017-12-03T17:16:08.990Z,19.20
2017-12-03T17:18:37.294Z,19.30
2017-12-03T17:21:05.595Z,19.30
2017-12-03T17:23:33.992Z,19.30
2017-12-03T17:26:02.427Z,19.30
2017-12-03T17:28:31.499Z,19.30
2017-12-03T17:31:00.460Z,19.30
2017-12-03T17:33:28.746Z,19.30
2017-12-03T17:35:57.031Z,19.30
2017-12-03T17:38:25.422Z,19.30
2017-12-03T17:40:53.739Z,19.30
2017-12-03T17:43:22.040Z,19.30
2017-12-03T17:45:50.507Z,19.30
2017-12-03T17:48:18.940Z,19.30
2017-12-03T17:50:47.364Z,19.30
2017-12-03T17:53:15.675Z,19.30
2017-12-03T17:55:44.140Z,19.30
2017-12-03T17:58:12.678Z,19.40
2017-12-03T18:00:42.193Z,19.40
2017-12-03T18:03:10.486Z,19.40
2017-12-03T18:05:38.772Z,19.40
2017-12-03T18:08:07.204Z,19.40
2017-12-03T18:10:36.317Z,19.40
2017-12-03T18:13:06.252Z,19.40
2017-12-03T18:15:34.710Z,19.40
2017-12-03T18:18:04.705Z,19.40
2017-12-03T18:20:34.277Z,19.40
2017-12-03T18:23:03.803Z,19.40
2017-12-03T18:25:32.272Z,19.40
2017-12-03T18:28:00.559Z,19.40
2017-12-03T18:30:28.887Z,19.40
2017-12-03T18:32:57.358Z,19.40
2017-12-03T18:35:25.632Z,19.40
2017-12-03T18:37:54.264Z,19.30
2017-12-03T18:40:22.774Z,19.30
2017-12-03T18:42:54.050Z,19.30
2017-12-03T18:45:22.641Z,19.30
2017-12-03T18:47:51.533Z,19.40
2017-12-03T18:50:20.596Z,19.30
2017-12-03T18:52:50.289Z,19.30
2017-12-03T18:55:18.662Z,19.30
2017-12-03T18:57:47.002Z,19.30
2017-12-03T19:00:15.360Z,19.30
2017-12-03T19:02:44.633Z,19.30
2017-12-03T19:05:13.969Z,19.30
2017-12-03T19:07:42.306Z,19.30
2017-12-03T19:10:11.343Z,19.30
2017-12-03T19:12:39.726Z,19.30
2017-12-03T19:15:09.087Z,19.30
2017-12-03T19:17:38.134Z,19.30
2017-12-03T19:20:06.440Z,19.30
2017-12-03T19:22:36.236Z,19.30
2017-12-03T19:25:04.697Z,19.30
2017-12-03T19:27:33.166Z,19.30
2017-12-03T19:30:03.126Z,19.30
2017-12-03T19:32:31.747Z,19.30
2017-12-03T19:35:02.404Z,19.30
2017-12-03T19:37:31.487Z,19.30
2017-12-03T19:39:59.816Z,19.30
2017-12-03T19:42:29.073Z,19.30
2017-12-03T19:44:59.182Z,19.30
2017-12-03T19:47:27.580Z,19.40
2017-12-03T19:49:57.316Z,19.30
2017-12-03T19:52:26.411Z,19.30
2017-12-03T19:54:55.474Z,19.30
2017-12-03T19:57:23.757Z,19.30
2017-12-03T19:59:52.108Z,19.30
2017-12-03T20:02:20.523Z,19.30
2017-12-03T20:04:48.780Z,19.30
2017-12-03T20:07:19.030Z,19.40
2017-12-03T20:09:47.502Z,19.30
2017-12-03T20:12:16.291Z,19.30
2017-12-03T20:14:44.916Z,19.30
2017-12-03T20:17:13.324Z,19.30
2017-12-03T20:19:42.480Z,19.30
2017-12-03T20:22:10.779Z,19.30
2017-12-03T20:24:39.086Z,19.30
2017-12-03T20:27:07.424Z,19.30
2017-12-03T20:29:35.816Z,19.30
2017-12-03T20:32:04.139Z,19.30
2017-12-03T20:34:32.440Z,19.30
2017-12-03T20:37:00.781Z,19.30
2017-12-03T20:39:29.028Z,19.30
2017-12-03T20:41:57.276Z,19.30
2017-12-03T20:44:25.578Z,19.30
2017-12-03T20:46:54.046Z,19.30
2017-12-03T20:49:22.336Z,19.30
2017-12-03T20:51:50.703Z,19.40
2017-12-03T20:54:19.221Z,19.30
2017-12-03T20:56:48.219Z,19.40
2017-12-03T20:59:17.344Z,19.30
2017-12-03T21:01:45.701Z,19.40
2017-12-03T21:04:14.762Z,19.30
2017-12-03T21:06:43.875Z,19.30
2017-12-03T21:09:12.167Z,19.30
2017-12-03T21:11:41.433Z,19.30
2017-12-03T21:14:09.759Z,19.30
2017-12-03T21:16:38.035Z,19.30
2017-12-03T21:19:06.415Z,19.30
2017-12-03T21:21:34.772Z,19.30
2017-12-03T21:24:04.056Z,19.30
2017-12-03T21:26:32.348Z,19.30
2017-12-03T21:29:01.444Z,19.30
2017-12-03T21:31:30.559Z,19.30
2017-12-03T21:33:58.901Z,19.30
2017-12-03T21:36:27.430Z,19.30
2017-12-03T21:38:56.596Z,19.30
2017-12-03T21:41:25.747Z,19.30
2017-12-03T21:43:54.126Z,19.30
2017-12-03T21:46:22.716Z,19.30
2017-12-03T21:48:51.169Z,19.30
2017-12-03T21:51:19.532Z,19.30
2017-12-03T21:53:48.494Z,19.30
2017-12-03T21:56:16.857Z,19.30
2017-12-03T21:58:46.084Z,19.30
2017-12-03T22:01:15.342Z,19.30
2017-12-03T22:03:44.965Z,19.30
2017-12-03T22:06:14.842Z,19.20
2017-12-03T22:08:43.136Z,19.20
2017-12-03T22:11:11.476Z,19.10
2017-12-03T22:13:39.782Z,19.00
2017-12-03T22:16:08.150Z,18.90
2017-12-03T22:18:36.463Z,18.90
2017-12-03T22:21:05.719Z,18.80
2017-12-03T22:23:34.035Z,18.80
2017-12-03T22:26:03.995Z,18.70
2017-12-03T22:28:32.360Z,18.70
2017-12-03T22:31:00.623Z,18.70
2017-12-03T22:33:29.984Z,18.70
2017-12-03T22:35:59.148Z,18.70
2017-12-03T22:38:27.514Z,18.60
2017-12-03T22:40:57.420Z,18.60
2017-12-03T22:43:25.732Z,18.60
2017-12-03T22:45:54.103Z,18.60
2017-12-03T22:48:23.680Z,18.60
2017-12-03T22:50:52.928Z,18.60
2017-12-03T22:53:22.051Z,18.60
2017-12-03T22:55:55.216Z,18.60
2017-12-03T22:58:25.379Z,18.60
2017-12-03T23:00:57.632Z,18.60
2017-12-03T23:03:26.197Z,18.60
2017-12-03T23:05:54.954Z,18.60
2017-12-03T23:08:25.649Z,18.50
2017-12-03T23:11:16.251Z,18.50
2017-12-03T23:13:46.562Z,18.50
2017-12-03T23:16:15.891Z,18.50
2017-12-03T23:18:45.167Z,18.50
2017-12-03T23:21:13.633Z,18.40
2017-12-03T23:23:42.782Z,18.40
2017-12-03T23:26:11.121Z,18.40
2017-12-03T23:28:39.416Z,18.40
2017-12-03T23:31:07.773Z,18.40
2017-12-03T23:33:36.096Z,18.40
2017-12-03T23:36:05.185Z,18.40
2017-12-03T23:38:33.499Z,18.40
2017-12-03T23:41:01.874Z,18.40
2017-12-03T23:43:30.277Z,18.40
2017-12-03T23:45:59.115Z,18.40
2017-12-03T23:48:27.498Z,18.40
2017-12-03T23:50:55.948Z,18.40
2017-12-03T23:53:24.339Z,18.40
2017-12-03T23:55:53.469Z,18.40
2017-12-03T23:58:21.776Z,18.40
